OISY  Yasouj  Airport

Iran

Add Bookmark
Status
Operational
Latitude Longitude
30° 42' 1" N 51° 32' 42" E
30.700500 51.545101
Local (DST + 5) UTC (GMT + 4)
Mar 2, 2015 06:27 Mar 2, 2015 14:57
Sunrise-Sunset Local UTC
Begin Civil Twilight 06:03 02:33
Sunrise 06:27 02:57
Sunset 06:04 14:34
End Civil Twilight 06:28 14:58

Current Weather

METAR Observed VFR
OISY 021400Z 25010KT CAVOK 11/M08 Q1016 Mon, Mar 2, 2015 @ 14:00 UTC
(57 Minutes ago)
Visual Flight Rules
Wind Visibility Clouds Conditions
250° at 10 knots (19 kph) 10 km or more
  • Clear skies
  • No significant weather
Temperatures Readings Precipitation
Current Temp 11°C (52°F)
Dewpoint -8°C (18°F)
Humidity 26%
Altimeter 30"Hg
Sea Level Pressure 1016mb
Field Elevation 5941.6'
None Recorded

24 Hour Weather History

Loading
-

24 Hour Weather Graphs

Loading
-

CheckWX.com is intended as a tool to help pilots better visualize weather data. It is not intended as a substitute for an official weather briefing obtained from a Flight Service Station. CheckWX.com does not meet the FAA requirements for an official pre-flight weather briefing. Therefore, it's important that pilots still call and obtain an official FSS pre-flight weather briefing.